Decoded Metar for KBRO (BROWNSVILLE in TX, USA) (IATA:BRO) | Meteo·Mobile Aviation Weather
aviador You're here:

KBRO Decoded Metar

BROWNSVILLE in TX, USA
Report Time2019-01-18 10:53:00
UTC Time2019-01-18 11:32:33
Flight Rules lifr LIFR
WindCalm
Visibility1609 m
Phenomena:Mist
Clouds:N/A
Ceiling300 ft
Temp18°C (ISA +3)
Dew Point18°C (100% RH)
QNH1018 hPa
Density Alt486 ft
Elevation23 ft
Report Wrong Elevation
Raw Report
KBRO 181053Z AUTO 00000KT 1SM BR VV003 18/18 A3005 RMK AO2 SLP175
T01780178=

Extra information for KBRO:More info

Metar Taf Metar & Taf Last 4 Metars F.Rules Stats Wind Profile Meteogram Temp Stats Airport Information Weather charts Add Link Nearby VenuesMetar ALERT Operation Metar Decoded Social comments

AIRNAV info for KBRO